createdAt,value
2022-09-14T00:00:00.093Z,0.00
2022-09-14T00:01:23.726Z,0.00
2022-09-14T00:02:01.290Z,0.00
2022-09-14T00:03:00.087Z,0.00
2022-09-14T00:04:00.184Z,0.00
2022-09-14T00:05:00.066Z,0.00
2022-09-14T00:06:00.020Z,0.00
2022-09-14T00:07:00.968Z,0.00
2022-09-14T00:07:59.959Z,0.00
2022-09-14T00:08:59.950Z,0.00
2022-09-14T00:10:00.045Z,0.00
2022-09-14T00:10:59.985Z,0.00
2022-09-14T00:11:59.899Z,0.00
2022-09-14T00:13:00.113Z,0.00
2022-09-14T00:13:59.844Z,0.00
2022-09-14T00:15:00.003Z,0.00
2022-09-14T00:15:59.862Z,0.00
2022-09-14T00:16:59.906Z,0.00
2022-09-14T00:17:59.847Z,0.00
2022-09-14T00:18:59.987Z,0.00
2022-09-14T00:20:00.023Z,0.00
2022-09-14T00:20:59.875Z,0.00
2022-09-14T00:22:00.001Z,0.00
2022-09-14T00:22:59.806Z,0.00
2022-09-14T00:23:59.924Z,0.00
2022-09-14T00:24:59.734Z,0.00
2022-09-14T00:25:59.800Z,0.00
2022-09-14T00:26:59.787Z,0.00
2022-09-14T00:27:59.797Z,0.00
2022-09-14T00:28:59.893Z,0.00
2022-09-14T00:29:59.792Z,0.00
2022-09-14T00:30:59.880Z,0.00
2022-09-14T00:31:59.851Z,0.00
2022-09-14T00:32:59.685Z,0.00
2022-09-14T00:34:00.709Z,0.00
2022-09-14T00:34:59.869Z,0.00
2022-09-14T00:35:59.710Z,0.00
2022-09-14T00:36:59.837Z,0.00
2022-09-14T00:37:59.683Z,0.00
2022-09-14T00:38:59.585Z,0.00
2022-09-14T00:39:59.616Z,0.00
2022-09-14T00:40:59.562Z,0.00
2022-09-14T00:41:59.814Z,0.00
2022-09-14T00:42:59.608Z,0.00
2022-09-14T00:43:59.811Z,0.00
2022-09-14T00:44:59.527Z,0.00
2022-09-14T00:45:59.667Z,0.00
2022-09-14T00:46:59.552Z,0.00
2022-09-14T00:47:59.564Z,0.00
2022-09-14T00:48:59.531Z,0.00
2022-09-14T00:49:59.540Z,0.00
2022-09-14T00:50:59.569Z,0.00
2022-09-14T00:52:00.496Z,0.00
2022-09-14T00:52:59.529Z,0.00
2022-09-14T00:53:59.528Z,0.00
2022-09-14T00:54:59.396Z,0.00
2022-09-14T00:55:59.409Z,0.00
2022-09-14T00:56:59.505Z,0.00
2022-09-14T00:58:00.484Z,0.00
2022-09-14T00:58:59.809Z,0.00
2022-09-14T00:59:59.523Z,0.00
2022-09-14T01:00:59.485Z,0.00
2022-09-14T01:01:59.442Z,0.00
2022-09-14T01:02:59.533Z,0.00
2022-09-14T01:03:59.407Z,0.00
2022-09-14T01:04:59.493Z,0.00
2022-09-14T01:05:59.424Z,0.00
2022-09-14T01:06:59.505Z,0.00
2022-09-14T01:07:59.515Z,0.00
2022-09-14T01:08:59.485Z,0.00
2022-09-14T01:09:59.335Z,0.00
2022-09-14T01:10:59.381Z,0.00
2022-09-14T01:11:59.406Z,0.00
2022-09-14T01:12:59.332Z,0.00
2022-09-14T01:13:59.251Z,0.00
2022-09-14T01:14:59.230Z,0.00
2022-09-14T01:15:59.294Z,0.00
2022-09-14T01:16:59.241Z,0.00
2022-09-14T01:17:59.510Z,0.00
2022-09-14T01:18:59.164Z,0.00
2022-09-14T01:19:59.238Z,0.00
2022-09-14T01:20:59.164Z,0.00
2022-09-14T01:21:59.137Z,0.00
2022-09-14T01:22:59.163Z,0.00
2022-09-14T01:23:59.258Z,0.00
2022-09-14T01:24:59.241Z,0.00
2022-09-14T01:25:59.095Z,0.00
2022-09-14T01:26:59.104Z,0.00
2022-09-14T01:27:59.079Z,0.00
2022-09-14T01:28:59.131Z,0.00
2022-09-14T01:29:59.123Z,0.00
2022-09-14T01:30:59.005Z,0.00
2022-09-14T01:31:59.041Z,0.00
2022-09-14T01:32:59.003Z,0.00
2022-09-14T01:33:59.008Z,0.00
2022-09-14T01:34:59.106Z,0.00
2022-09-14T01:35:59.094Z,0.00
2022-09-14T01:36:59.021Z,0.00
2022-09-14T01:37:58.994Z,0.00
2022-09-14T01:38:59.006Z,0.00
2022-09-14T01:39:58.981Z,0.00
2022-09-14T01:40:58.965Z,0.00
2022-09-14T01:41:58.885Z,0.00
2022-09-14T01:42:58.866Z,0.00
2022-09-14T01:43:58.988Z,0.00
2022-09-14T01:56:43.267Z,0.00
2022-09-14T01:57:43.225Z,0.00
2022-09-14T01:58:43.210Z,0.00
2022-09-14T01:59:43.212Z,0.00
2022-09-14T02:00:43.268Z,0.00
2022-09-14T02:01:45.536Z,0.00
2022-09-14T02:02:44.285Z,0.00
2022-09-14T02:03:43.157Z,0.00
2022-09-14T02:04:43.159Z,0.00
2022-09-14T02:05:43.141Z,0.00
2022-09-14T02:06:43.129Z,0.00
2022-09-14T02:07:43.111Z,0.00
2022-09-14T02:08:43.103Z,0.00
2022-09-14T02:09:43.104Z,0.00
2022-09-14T02:10:43.084Z,0.00
2022-09-14T02:11:43.068Z,0.00
2022-09-14T02:12:43.169Z,0.00
2022-09-14T02:13:43.095Z,0.00
2022-09-14T02:14:43.053Z,0.00
2022-09-14T02:15:43.023Z,0.00
2022-09-14T02:16:43.157Z,0.00
2022-09-14T02:17:43.001Z,0.00
2022-09-14T02:18:42.993Z,0.00
2022-09-14T02:19:43.009Z,0.00
2022-09-14T02:20:42.973Z,0.00
2022-09-14T02:21:42.966Z,0.00
2022-09-14T02:22:42.946Z,0.00
2022-09-14T02:23:42.933Z,0.00
2022-09-14T02:24:42.926Z,0.00
2022-09-14T02:25:42.929Z,0.00
2022-09-14T02:26:42.903Z,0.00
2022-09-14T02:27:42.889Z,0.00
2022-09-14T02:28:43.020Z,0.00
2022-09-14T02:29:42.870Z,0.00
2022-09-14T02:30:42.875Z,0.00
2022-09-14T02:31:42.929Z,0.00
2022-09-14T02:32:42.835Z,0.00
2022-09-14T02:33:42.823Z,0.00
2022-09-14T02:34:42.828Z,0.00
2022-09-14T02:35:42.918Z,0.00
2022-09-14T02:36:42.792Z,0.00
2022-09-14T02:37:42.786Z,0.00
2022-09-14T02:38:42.770Z,0.00
2022-09-14T02:39:42.848Z,0.00
2022-09-14T02:40:42.753Z,0.00
2022-09-14T02:41:42.748Z,0.00
2022-09-14T02:42:42.729Z,0.00
2022-09-14T02:43:42.724Z,0.00
2022-09-14T02:44:42.725Z,0.00
2022-09-14T02:45:42.689Z,0.00
2022-09-14T02:46:42.805Z,0.00
2022-09-14T02:47:42.680Z,0.00
2022-09-14T02:48:42.683Z,0.00
2022-09-14T02:49:42.645Z,0.00
2022-09-14T02:50:42.637Z,0.00
2022-09-14T02:51:42.625Z,0.00
2022-09-14T02:52:42.627Z,0.00
2022-09-14T02:53:42.621Z,0.00
2022-09-14T02:54:42.592Z,0.00
2022-09-14T02:55:42.576Z,0.00
2022-09-14T02:56:42.585Z,0.00
2022-09-14T02:57:42.564Z,0.00
2022-09-14T02:58:42.548Z,0.00
2022-09-14T02:59:42.540Z,0.00
2022-09-14T03:00:42.759Z,0.00
2022-09-14T03:01:42.596Z,0.00
2022-09-14T03:02:42.514Z,0.00
2022-09-14T03:03:42.509Z,0.00
2022-09-14T03:04:42.485Z,0.00
2022-09-14T03:05:42.475Z,0.00
2022-09-14T03:06:42.467Z,0.00
2022-09-14T03:07:42.457Z,0.00
2022-09-14T03:08:42.447Z,0.00
2022-09-14T03:09:42.423Z,0.00
2022-09-14T03:10:42.434Z,0.00
2022-09-14T03:11:42.403Z,0.00
2022-09-14T03:12:42.394Z,0.00
2022-09-14T03:13:42.410Z,0.00
2022-09-14T03:14:42.371Z,0.00
2022-09-14T03:15:42.357Z,0.00
2022-09-14T03:16:42.458Z,0.00
2022-09-14T03:17:42.339Z,0.00
2022-09-14T03:18:42.359Z,0.00
2022-09-14T03:19:42.314Z,0.00
2022-09-14T03:20:42.307Z,0.00
2022-09-14T03:21:42.294Z,0.00
2022-09-14T03:22:42.288Z,0.00
2022-09-14T03:23:42.284Z,0.00
2022-09-14T03:24:42.271Z,0.00
2022-09-14T03:25:42.246Z,0.00
2022-09-14T03:26:42.238Z,0.00
2022-09-14T03:27:42.231Z,0.00
2022-09-14T03:28:42.229Z,0.00
2022-09-14T03:29:42.204Z,0.00
2022-09-14T03:30:42.195Z,0.00
2022-09-14T03:31:42.238Z,0.00
2022-09-14T03:32:42.196Z,0.00
2022-09-14T03:33:42.170Z,0.00
2022-09-14T03:34:42.165Z,0.00
2022-09-14T03:35:42.135Z,0.00
2022-09-14T03:36:42.128Z,0.00
2022-09-14T03:37:42.124Z,0.00
2022-09-14T03:38:42.109Z,0.00
2022-09-14T03:39:42.209Z,0.00
2022-09-14T03:40:42.085Z,0.00
2022-09-14T03:41:42.070Z,0.00
2022-09-14T03:42:42.058Z,0.00
2022-09-14T03:43:42.066Z,0.00
2022-09-14T03:44:42.053Z,0.00
2022-09-14T03:45:42.029Z,0.00
2022-09-14T03:46:42.040Z,0.00
2022-09-14T03:47:42.004Z,0.00
2022-09-14T03:48:42.099Z,0.00
2022-09-14T03:49:42.001Z,0.00
2022-09-14T03:50:41.974Z,0.00
2022-09-14T03:51:41.965Z,0.00
2022-09-14T03:52:41.949Z,0.00
2022-09-14T03:53:41.935Z,0.00
2022-09-14T03:54:41.959Z,0.00
2022-09-14T03:55:41.915Z,0.00
2022-09-14T03:56:41.917Z,0.00
2022-09-14T03:57:41.891Z,0.00
2022-09-14T03:58:41.883Z,0.00
2022-09-14T03:59:43.804Z,0.00
2022-09-14T04:00:41.874Z,0.00
2022-09-14T04:01:41.929Z,0.00
2022-09-14T04:02:41.880Z,0.00
2022-09-14T04:03:41.827Z,0.00
2022-09-14T04:04:41.842Z,0.00
2022-09-14T04:05:41.816Z,0.00
2022-09-14T04:06:41.797Z,0.00
2022-09-14T04:07:41.793Z,0.00
2022-09-14T04:08:41.777Z,0.00
2022-09-14T04:09:41.759Z,0.00
2022-09-14T04:10:41.773Z,0.00
2022-09-14T04:11:41.736Z,0.00
2022-09-14T04:12:41.729Z,0.00
2022-09-14T04:13:41.735Z,0.00
2022-09-14T04:14:41.707Z,0.00
2022-09-14T04:15:41.725Z,0.00
2022-09-14T04:16:41.699Z,0.00
2022-09-14T04:17:41.679Z,0.00
2022-09-14T04:18:41.659Z,0.00
2022-09-14T04:19:41.654Z,0.00
2022-09-14T04:20:41.755Z,0.00
2022-09-14T04:21:41.638Z,0.00
2022-09-14T04:22:41.639Z,0.00
2022-09-14T04:24:03.345Z,0.00
2022-09-14T04:24:42.597Z,0.00
2022-09-14T04:25:41.584Z,0.00
2022-09-14T04:26:41.604Z,0.00
2022-09-14T04:27:41.559Z,0.00
2022-09-14T04:28:41.552Z,0.00
2022-09-14T04:29:41.550Z,0.00
2022-09-14T04:30:41.531Z,0.00
2022-09-14T04:31:41.575Z,0.00
2022-09-14T04:32:41.512Z,0.00
2022-09-14T04:33:41.532Z,0.00
2022-09-14T04:34:41.484Z,0.00
2022-09-14T04:35:41.473Z,0.00
2022-09-14T04:36:41.485Z,0.00
2022-09-14T04:37:41.461Z,0.00
2022-09-14T04:38:41.440Z,0.00
2022-09-14T04:39:41.439Z,0.00
2022-09-14T04:40:41.419Z,0.00
2022-09-14T04:41:41.415Z,0.00
2022-09-14T04:42:41.395Z,0.00
2022-09-14T04:43:41.383Z,0.00
2022-09-14T04:44:41.373Z,0.00
2022-09-14T04:45:41.369Z,0.00
2022-09-14T04:46:46.044Z,0.00
2022-09-14T04:47:42.345Z,0.00
2022-09-14T04:48:41.328Z,0.00
2022-09-14T04:49:41.315Z,0.00
2022-09-14T04:50:41.307Z,0.00
2022-09-14T04:51:41.311Z,0.00
2022-09-14T04:52:41.321Z,0.00
2022-09-14T04:53:41.271Z,0.00
2022-09-14T04:54:41.264Z,0.00
2022-09-14T04:55:41.246Z,0.00
2022-09-14T04:56:41.243Z,0.00
2022-09-14T04:57:41.235Z,0.00
2022-09-14T04:58:41.230Z,0.00
2022-09-14T04:59:41.204Z,0.00
2022-09-14T05:00:41.197Z,0.00
2022-09-14T05:01:41.251Z,0.00
2022-09-14T05:02:41.326Z,0.00
2022-09-14T05:03:41.171Z,0.00
2022-09-14T05:04:41.150Z,0.00
2022-09-14T05:05:44.774Z,0.00
2022-09-14T05:06:41.139Z,0.00
2022-09-14T05:07:41.114Z,0.00
2022-09-14T05:08:41.140Z,0.00
2022-09-14T05:09:41.107Z,0.00
2022-09-14T05:10:41.086Z,0.00
2022-09-14T05:11:41.080Z,0.00
2022-09-14T05:12:41.065Z,0.00
2022-09-14T05:13:41.065Z,0.00
2022-09-14T05:14:41.054Z,0.00
2022-09-14T05:15:41.056Z,0.00
2022-09-14T05:16:41.023Z,0.00
2022-09-14T05:17:41.005Z,0.00
2022-09-14T05:18:40.999Z,0.00
2022-09-14T05:19:41.000Z,0.00
2022-09-14T05:20:40.996Z,0.00
2022-09-14T05:21:40.961Z,0.00
2022-09-14T05:22:40.953Z,0.00
2022-09-14T05:23:40.952Z,0.00
2022-09-14T05:24:41.313Z,0.00
2022-09-14T05:25:40.918Z,0.00
2022-09-14T05:26:40.915Z,0.00
2022-09-14T05:27:40.894Z,0.00
2022-09-14T05:28:40.897Z,0.00
2022-09-14T05:29:40.870Z,0.00
2022-09-14T05:30:40.865Z,0.00
2022-09-14T05:31:40.905Z,0.00
2022-09-14T05:32:40.850Z,0.00
2022-09-14T05:33:40.923Z,0.00
2022-09-14T05:34:40.826Z,0.00
2022-09-14T05:35:40.812Z,0.00
2022-09-14T05:36:40.804Z,0.00
2022-09-14T05:37:40.783Z,0.00
2022-09-14T05:38:40.796Z,0.00
2022-09-14T05:39:40.778Z,0.00
2022-09-14T05:40:40.859Z,0.00
2022-09-14T05:41:40.744Z,0.00
2022-09-14T05:42:40.734Z,0.00
2022-09-14T05:43:40.717Z,0.00
2022-09-14T05:44:40.729Z,0.00
2022-09-14T05:45:40.694Z,0.00
2022-09-14T05:46:40.802Z,0.00
2022-09-14T05:47:40.681Z,0.00
2022-09-14T05:48:40.792Z,0.00
2022-09-14T05:49:40.674Z,0.00
2022-09-14T05:50:40.642Z,0.00
2022-09-14T05:51:40.640Z,0.00
2022-09-14T05:52:40.626Z,0.00
2022-09-14T05:53:40.609Z,0.00
2022-09-14T05:54:40.597Z,0.00
2022-09-14T05:55:40.608Z,0.00
2022-09-14T05:56:40.599Z,0.00
2022-09-14T05:57:40.562Z,0.00
2022-09-14T05:58:40.554Z,0.00
2022-09-14T05:59:40.551Z,0.00
2022-09-14T06:00:40.552Z,0.00
2022-09-14T06:01:40.711Z,0.00
2022-09-14T06:02:40.512Z,0.00
2022-09-14T06:03:40.655Z,0.00
2022-09-14T06:04:40.490Z,0.00
2022-09-14T06:05:40.516Z,0.00
2022-09-14T06:06:40.485Z,0.00
2022-09-14T06:07:40.450Z,0.00
2022-09-14T06:08:40.445Z,0.00
2022-09-14T06:09:40.431Z,0.00
2022-09-14T06:10:40.446Z,0.00
2022-09-14T06:11:40.407Z,0.00
2022-09-14T06:12:40.417Z,0.00
2022-09-14T06:13:40.425Z,0.00
2022-09-14T06:14:40.377Z,0.00
2022-09-14T06:17:00.200Z,0.00
2022-09-14T06:18:00.186Z,0.00
2022-09-14T06:19:00.170Z,0.00
2022-09-14T06:20:04.381Z,0.00
2022-09-14T06:21:00.171Z,0.00
2022-09-14T06:22:00.156Z,0.00
2022-09-14T06:23:00.124Z,0.00
2022-09-14T06:24:00.122Z,0.00
2022-09-14T06:25:00.114Z,5.62
2022-09-14T06:26:00.133Z,5.62
2022-09-14T06:27:00.089Z,5.62
2022-09-14T06:28:00.101Z,5.62
2022-09-14T06:29:00.062Z,5.62
2022-09-14T06:30:00.049Z,5.62
2022-09-14T06:31:00.036Z,5.62
2022-09-14T06:32:00.043Z,5.62
2022-09-14T06:33:00.018Z,5.62
2022-09-14T06:34:00.008Z,5.62
2022-09-14T06:34:59.998Z,5.62
2022-09-14T06:36:00.000Z,5.62
2022-09-14T06:36:59.968Z,5.62
2022-09-14T06:37:59.976Z,5.62
2022-09-14T06:38:59.945Z,5.62
2022-09-14T06:39:59.978Z,5.62
2022-09-14T06:40:59.951Z,5.62
2022-09-14T06:41:59.914Z,5.62
2022-09-14T06:42:59.905Z,11.25
2022-09-14T06:43:59.958Z,11.25
2022-09-14T06:44:59.878Z,11.25
2022-09-14T06:45:59.912Z,11.25
2022-09-14T06:46:59.871Z,11.25
2022-09-14T06:47:59.846Z,11.25
2022-09-14T06:48:59.840Z,11.25
2022-09-14T06:49:59.826Z,11.25
2022-09-14T06:50:59.811Z,11.25
2022-09-14T06:51:59.856Z,11.25
2022-09-14T06:52:59.788Z,11.25
2022-09-14T06:53:59.787Z,11.25
2022-09-14T06:54:59.767Z,11.25
2022-09-14T06:55:59.758Z,11.25
2022-09-14T06:56:59.757Z,11.25
2022-09-14T06:57:59.733Z,11.25
2022-09-14T06:58:59.726Z,11.25
2022-09-14T06:59:59.736Z,11.25
2022-09-14T07:00:59.699Z,11.25
2022-09-14T07:01:59.705Z,11.25
2022-09-14T07:02:59.704Z,11.25
2022-09-14T07:03:59.666Z,11.25
2022-09-14T07:04:59.652Z,11.25
2022-09-14T07:05:59.674Z,11.25
2022-09-14T07:06:59.642Z,11.25
2022-09-14T07:07:59.623Z,11.25
2022-09-14T07:08:59.607Z,11.25
2022-09-14T07:09:59.599Z,11.25
2022-09-14T07:10:59.591Z,11.25
2022-09-14T07:11:59.592Z,11.25
2022-09-14T07:12:59.564Z,11.25
2022-09-14T07:13:59.553Z,11.25
2022-09-14T07:14:59.539Z,11.25
2022-09-14T07:15:59.560Z,11.25
2022-09-14T07:16:59.532Z,11.25
2022-09-14T07:17:59.526Z,11.25
2022-09-14T07:18:59.505Z,11.25
2022-09-14T07:19:59.487Z,11.25
2022-09-14T07:21:03.491Z,11.25
2022-09-14T07:22:00.488Z,11.25
2022-09-14T07:22:59.464Z,11.25
2022-09-14T07:23:59.444Z,16.88
2022-09-14T07:24:59.446Z,16.88
2022-09-14T07:25:59.418Z,16.88
2022-09-14T07:26:59.407Z,16.88
2022-09-14T07:27:59.410Z,16.88
2022-09-14T07:28:59.402Z,16.88
2022-09-14T07:29:59.373Z,16.88
2022-09-14T07:30:59.438Z,16.88
2022-09-14T07:31:59.371Z,16.88
2022-09-14T07:32:59.349Z,16.88
2022-09-14T07:33:59.342Z,16.88
2022-09-14T07:34:59.322Z,16.88
2022-09-14T07:35:59.310Z,16.88
2022-09-14T07:36:59.293Z,16.88
2022-09-14T07:37:59.298Z,16.88
2022-09-14T07:38:59.369Z,16.88
2022-09-14T07:39:59.328Z,16.88
2022-09-14T07:40:59.256Z,16.88
2022-09-14T07:41:59.238Z,16.88
2022-09-14T07:42:59.264Z,16.88
2022-09-14T07:43:59.215Z,16.88
2022-09-14T07:44:59.206Z,16.88
2022-09-14T07:45:59.261Z,16.88
2022-09-14T07:46:59.191Z,16.88
2022-09-14T07:47:59.277Z,16.88
2022-09-14T07:48:59.169Z,16.88
2022-09-14T07:49:59.161Z,16.88
2022-09-14T07:50:59.138Z,16.88
2022-09-14T07:51:59.125Z,16.88
2022-09-14T07:52:59.124Z,16.88
2022-09-14T07:53:59.114Z,16.88
2022-09-14T07:54:59.087Z,16.88
2022-09-14T07:55:59.605Z,16.88
2022-09-14T07:57:06.920Z,16.88
2022-09-14T07:57:59.066Z,22.50
2022-09-14T07:59:17.210Z,22.50
2022-09-14T08:00:00.055Z,22.50
2022-09-14T08:00:59.054Z,22.50
2022-09-14T08:01:59.203Z,22.50
2022-09-14T08:02:59.022Z,22.50
2022-09-14T08:04:03.377Z,22.50
2022-09-14T08:04:59.975Z,22.50
2022-09-14T08:05:58.968Z,22.50
2022-09-14T08:06:58.956Z,22.50
2022-09-14T08:07:58.945Z,22.50
2022-09-14T08:08:58.987Z,22.50
2022-09-14T08:09:58.930Z,22.50
2022-09-14T08:10:58.910Z,22.50
2022-09-14T08:11:58.904Z,22.50
2022-09-14T08:12:58.891Z,16.88
2022-09-14T08:13:58.893Z,16.88
2022-09-14T08:14:58.892Z,16.88
2022-09-14T08:15:58.855Z,16.88
2022-09-14T08:16:58.854Z,16.88
2022-09-14T08:17:58.835Z,16.88
2022-09-14T08:18:58.858Z,16.88
2022-09-14T08:19:58.915Z,16.88
2022-09-14T08:20:58.797Z,16.88
2022-09-14T08:21:58.793Z,16.88
2022-09-14T08:22:58.774Z,16.88
2022-09-14T08:23:58.810Z,16.88
2022-09-14T08:24:58.764Z,16.88
2022-09-14T08:25:58.755Z,16.88
2022-09-14T08:26:58.733Z,16.88
2022-09-14T08:27:58.730Z,16.88
2022-09-14T08:28:58.712Z,16.88
2022-09-14T08:29:58.710Z,16.88
2022-09-14T08:30:58.713Z,22.50
2022-09-14T08:31:58.766Z,22.50
2022-09-14T08:33:01.769Z,22.50
2022-09-14T08:33:58.665Z,22.50
2022-09-14T08:34:58.656Z,22.50
2022-09-14T08:35:58.651Z,22.50
2022-09-14T08:36:58.625Z,22.50
2022-09-14T08:37:58.607Z,22.50
2022-09-14T08:38:58.603Z,22.50
2022-09-14T08:39:58.607Z,22.50
2022-09-14T08:40:58.590Z,28.12
2022-09-14T08:41:58.561Z,28.12
2022-09-14T08:42:58.555Z,28.12
2022-09-14T08:43:58.553Z,28.12
2022-09-14T08:44:58.541Z,22.50
2022-09-14T08:45:58.557Z,22.50
2022-09-14T08:46:58.518Z,22.50
2022-09-14T08:47:58.504Z,22.50
2022-09-14T08:48:58.484Z,22.50
2022-09-14T08:49:58.478Z,22.50
2022-09-14T08:50:58.452Z,22.50
2022-09-14T08:51:58.482Z,22.50
2022-09-14T08:52:58.437Z,22.50
2022-09-14T08:53:58.429Z,22.50
2022-09-14T08:54:58.441Z,16.88
2022-09-14T08:55:58.402Z,16.88
2022-09-14T08:56:58.392Z,16.88
2022-09-14T08:57:58.381Z,16.88
2022-09-14T08:58:58.368Z,16.88
2022-09-14T08:59:58.371Z,16.88
2022-09-14T09:00:58.510Z,16.88
2022-09-14T09:01:58.340Z,16.88
2022-09-14T09:02:58.322Z,22.50
2022-09-14T09:03:58.383Z,22.50
2022-09-14T09:04:58.302Z,22.50
2022-09-14T09:05:58.286Z,22.50
2022-09-14T09:06:58.290Z,22.50
2022-09-14T09:07:58.289Z,22.50
2022-09-14T09:08:58.258Z,22.50
2022-09-14T09:09:58.245Z,22.50
2022-09-14T09:10:58.259Z,22.50
2022-09-14T09:11:58.221Z,22.50
2022-09-14T09:12:58.209Z,22.50
2022-09-14T09:13:58.196Z,22.50
2022-09-14T09:14:58.199Z,22.50
2022-09-14T09:15:58.277Z,28.12
2022-09-14T09:16:58.178Z,28.12
2022-09-14T09:17:58.369Z,28.12
2022-09-14T09:18:58.168Z,28.12
2022-09-14T09:19:58.133Z,28.12
2022-09-14T09:20:58.134Z,28.12
2022-09-14T09:21:58.128Z,28.12
2022-09-14T09:22:58.102Z,28.12
2022-09-14T09:23:58.099Z,28.12
2022-09-14T09:24:58.072Z,28.12
2022-09-14T09:25:58.059Z,28.12
2022-09-14T09:26:58.067Z,28.12
2022-09-14T09:27:58.039Z,28.12
2022-09-14T09:28:58.031Z,28.12
2022-09-14T09:29:58.012Z,28.12
2022-09-14T09:30:58.006Z,28.12
2022-09-14T09:31:58.077Z,28.12
2022-09-14T09:32:58.004Z,28.12
2022-09-14T09:33:57.966Z,28.12
2022-09-14T09:34:57.961Z,28.12
2022-09-14T09:35:57.948Z,28.12
2022-09-14T09:36:57.937Z,28.12
2022-09-14T09:37:57.938Z,28.12
2022-09-14T09:39:00.668Z,28.12
2022-09-14T09:39:59.003Z,28.12
2022-09-14T09:40:57.899Z,28.12
2022-09-14T09:41:57.891Z,28.12
2022-09-14T09:42:57.899Z,28.12
2022-09-14T09:43:57.857Z,28.12
2022-09-14T09:45:01.778Z,28.12
2022-09-14T09:45:58.837Z,28.12
2022-09-14T09:46:57.959Z,28.12
2022-09-14T09:47:57.808Z,28.12
2022-09-14T09:48:57.811Z,28.12
2022-09-14T09:49:57.801Z,22.50
2022-09-14T09:50:57.781Z,22.50
2022-09-14T09:51:57.762Z,22.50
2022-09-14T09:52:57.758Z,22.50
2022-09-14T09:53:57.756Z,22.50
2022-09-14T09:54:57.733Z,22.50
2022-09-14T09:55:57.738Z,22.50
2022-09-14T09:56:57.708Z,22.50
2022-09-14T09:57:57.691Z,22.50
2022-09-14T09:58:57.796Z,22.50
2022-09-14T09:59:57.670Z,22.50
2022-09-14T10:00:57.730Z,22.50
2022-09-14T10:01:57.698Z,22.50
2022-09-14T10:02:57.661Z,22.50
2022-09-14T10:03:57.634Z,22.50
2022-09-14T10:04:57.635Z,16.88
2022-09-14T10:05:57.615Z,16.88
2022-09-14T10:06:57.602Z,16.88
2022-09-14T10:07:57.580Z,16.88
2022-09-14T10:08:57.577Z,16.88
2022-09-14T10:09:57.576Z,16.88
2022-09-14T10:10:57.553Z,16.88
2022-09-14T10:11:57.563Z,16.88
2022-09-14T10:12:57.534Z,16.88
2022-09-14T10:13:57.530Z,16.88
2022-09-14T10:14:57.515Z,16.88
2022-09-14T10:15:57.560Z,22.50
2022-09-14T10:16:57.485Z,22.50
2022-09-14T10:17:57.475Z,22.50
2022-09-14T10:18:57.469Z,22.50
2022-09-14T10:19:57.470Z,22.50
2022-09-14T10:20:57.436Z,22.50
2022-09-14T10:21:57.421Z,22.50
2022-09-14T10:22:57.413Z,22.50
2022-09-14T10:23:57.401Z,22.50
2022-09-14T10:24:57.405Z,22.50
2022-09-14T10:25:57.376Z,22.50
2022-09-14T10:26:57.361Z,22.50
2022-09-14T10:27:57.416Z,28.12
2022-09-14T10:28:57.348Z,28.12
2022-09-14T10:29:57.341Z,28.12
2022-09-14T10:30:57.433Z,28.12
2022-09-14T10:31:57.307Z,28.12
2022-09-14T10:32:57.314Z,28.12
2022-09-14T10:33:57.324Z,28.12
2022-09-14T10:34:57.310Z,28.12
2022-09-14T10:35:57.283Z,22.50
2022-09-14T10:36:57.254Z,22.50
2022-09-14T10:37:57.241Z,22.50
2022-09-14T10:38:57.251Z,22.50
2022-09-14T10:39:57.368Z,22.50
2022-09-14T10:40:57.214Z,22.50
2022-09-14T10:41:57.202Z,22.50
2022-09-14T10:42:57.193Z,22.50
2022-09-14T10:43:57.202Z,22.50
2022-09-14T10:44:57.180Z,22.50
2022-09-14T10:45:57.316Z,22.50
2022-09-14T10:47:00.242Z,22.50
2022-09-14T10:47:58.127Z,28.12
2022-09-14T10:48:57.137Z,28.12
2022-09-14T10:49:57.109Z,28.12
2022-09-14T10:50:57.119Z,28.12
2022-09-14T10:51:57.079Z,28.12
2022-09-14T10:52:57.076Z,28.12
2022-09-14T10:53:57.091Z,28.12
2022-09-14T10:54:57.054Z,28.12
2022-09-14T10:55:57.035Z,28.12
2022-09-14T10:56:57.042Z,28.12
2022-09-14T10:57:57.029Z,28.12
2022-09-14T10:58:57.012Z,28.12
2022-09-14T10:59:57.012Z,28.12
2022-09-14T11:00:56.988Z,28.12
2022-09-14T11:01:57.141Z,28.12
2022-09-14T11:02:57.059Z,28.12
2022-09-14T11:03:57.015Z,28.12
2022-09-14T11:04:56.937Z,28.12
2022-09-14T11:05:57.129Z,28.12
2022-09-14T11:06:56.927Z,28.12
2022-09-14T11:07:56.895Z,28.12
2022-09-14T11:08:56.892Z,28.12
2022-09-14T11:09:56.890Z,28.12
2022-09-14T11:10:56.869Z,28.12
2022-09-14T11:11:56.863Z,28.12
2022-09-14T11:12:56.882Z,28.12
2022-09-14T11:13:56.832Z,28.12
2022-09-14T11:14:56.822Z,28.12
2022-09-14T11:15:56.971Z,28.12
2022-09-14T11:16:56.801Z,28.12
2022-09-14T11:17:56.786Z,28.12
2022-09-14T11:18:56.794Z,28.12
2022-09-14T11:19:56.762Z,28.12
2022-09-14T11:20:56.753Z,28.12
2022-09-14T11:21:56.752Z,28.12
2022-09-14T11:22:56.741Z,28.12
2022-09-14T11:23:56.731Z,28.12
2022-09-14T11:24:56.708Z,28.12
2022-09-14T11:25:56.704Z,28.12
2022-09-14T11:26:56.689Z,28.12
2022-09-14T11:27:56.670Z,28.12
2022-09-14T11:28:56.678Z,28.12
2022-09-14T11:29:56.657Z,28.12
2022-09-14T11:30:56.682Z,28.12
2022-09-14T11:32:19.215Z,28.12
2022-09-14T11:32:57.615Z,28.12
2022-09-14T11:33:56.640Z,28.12
2022-09-14T11:34:56.591Z,28.12
2022-09-14T11:35:56.576Z,28.12
2022-09-14T11:36:56.583Z,28.12
2022-09-14T11:37:56.553Z,28.12
2022-09-14T11:38:56.564Z,28.12
2022-09-14T11:39:56.572Z,33.75
2022-09-14T11:40:56.523Z,33.75
2022-09-14T11:41:56.509Z,33.75
2022-09-14T11:42:56.509Z,33.75
2022-09-14T11:43:56.511Z,33.75
2022-09-14T11:44:56.480Z,33.75
2022-09-14T11:45:56.510Z,33.75
2022-09-14T11:47:00.473Z,39.38
2022-09-14T11:47:56.552Z,39.38
2022-09-14T11:48:56.720Z,39.38
2022-09-14T11:49:56.434Z,39.38
2022-09-14T11:50:56.409Z,39.38
2022-09-14T11:51:56.392Z,39.38
2022-09-14T11:52:56.397Z,39.38
2022-09-14T11:53:56.382Z,39.38
2022-09-14T11:54:56.383Z,39.38
2022-09-14T11:55:56.352Z,39.38
2022-09-14T11:56:56.339Z,39.38
2022-09-14T11:57:56.326Z,39.38
2022-09-14T11:58:56.337Z,39.38
2022-09-14T11:59:56.306Z,39.38
2022-09-14T12:00:56.317Z,33.75
2022-09-14T12:01:56.317Z,33.75
2022-09-14T12:02:56.340Z,33.75
2022-09-14T12:03:56.433Z,33.75
2022-09-14T12:04:56.277Z,33.75
2022-09-14T12:05:56.262Z,28.12
2022-09-14T12:06:56.257Z,28.12
2022-09-14T12:07:56.210Z,28.12
2022-09-14T12:08:56.199Z,28.12
2022-09-14T12:09:56.208Z,28.12
2022-09-14T12:10:56.180Z,28.12
2022-09-14T12:11:56.164Z,28.12
2022-09-14T12:12:56.164Z,28.12
2022-09-14T12:13:56.149Z,28.12
2022-09-14T12:14:56.137Z,28.12
2022-09-14T12:15:56.172Z,28.12
2022-09-14T12:16:56.111Z,28.12
2022-09-14T12:17:56.141Z,28.12
2022-09-14T12:18:56.109Z,28.12
2022-09-14T12:19:56.103Z,28.12
2022-09-14T12:20:56.082Z,28.12
2022-09-14T12:21:56.072Z,28.12
2022-09-14T12:22:56.054Z,28.12
2022-09-14T12:23:56.029Z,28.12
2022-09-14T12:24:56.029Z,28.12
2022-09-14T12:25:56.019Z,28.12
2022-09-14T12:26:56.003Z,28.12
2022-09-14T12:27:55.987Z,28.12
2022-09-14T12:28:55.980Z,28.12
2022-09-14T12:29:55.993Z,28.12
2022-09-14T12:30:56.006Z,28.12
2022-09-14T12:31:55.940Z,28.12
2022-09-14T12:32:55.935Z,28.12
2022-09-14T12:33:55.921Z,28.12
2022-09-14T12:34:55.911Z,28.12
2022-09-14T12:35:55.934Z,28.12
2022-09-14T12:36:55.885Z,28.12
2022-09-14T12:37:55.874Z,28.12
2022-09-14T12:38:55.870Z,28.12
2022-09-14T12:39:55.873Z,28.12
2022-09-14T12:40:55.849Z,28.12
2022-09-14T12:41:55.845Z,28.12
2022-09-14T12:42:55.831Z,28.12
2022-09-14T12:43:55.801Z,28.12
2022-09-14T12:44:55.799Z,28.12
2022-09-14T12:45:55.828Z,28.12
2022-09-14T12:46:55.789Z,28.12
2022-09-14T12:47:55.755Z,28.12
2022-09-14T12:48:55.758Z,28.12
2022-09-14T12:49:55.748Z,28.12
2022-09-14T12:50:55.722Z,28.12
2022-09-14T12:51:55.768Z,28.12
2022-09-14T12:52:55.701Z,28.12
2022-09-14T12:53:55.692Z,28.12
2022-09-14T12:54:55.678Z,28.12
2022-09-14T12:55:55.672Z,28.12
2022-09-14T12:56:55.681Z,28.12
2022-09-14T12:57:55.644Z,28.12
2022-09-14T12:58:55.630Z,28.12
2022-09-14T12:59:55.639Z,28.12
2022-09-14T13:00:55.611Z,28.12
2022-09-14T13:01:55.674Z,28.12
2022-09-14T13:02:55.645Z,28.12
2022-09-14T13:03:55.575Z,28.12
2022-09-14T13:04:55.572Z,28.12
2022-09-14T13:05:55.554Z,28.12
2022-09-14T13:06:55.547Z,28.12
2022-09-14T13:07:55.567Z,28.12
2022-09-14T13:08:55.522Z,28.12
2022-09-14T13:09:55.508Z,28.12
2022-09-14T13:10:55.496Z,28.12
2022-09-14T13:11:55.489Z,28.12
2022-09-14T13:12:55.504Z,28.12
2022-09-14T13:13:55.485Z,28.12
2022-09-14T13:14:55.464Z,28.12
2022-09-14T13:15:55.609Z,28.12
2022-09-14T13:16:55.423Z,28.12
2022-09-14T13:17:55.417Z,28.12